Williston, North Dakota
Current Conditions -  °F | °C
As of 2:52 AM on Thursday 23 Oct 2014 (Local Time) from KISN Reporting Station
Clear Clear  
Wind Chill: 33°   Ceiling: Unl
Heat Index: 39°   Visibility: 10mi
Dew Point: 32°   Wind: 8mph
Humidity: 76%   Direction: 210°SSW
Pressure: 29.87"   Gusts: NA
Location:  48.15°N, 103.62°W
Report Text: KISN 230752Z AUTO 21007KT 10SM CLR 04/00 A2987 RMK AO2 SLP123 T00390000
Loading
Personal Weather Stations






























Interactive Weather Map New forecast layout! Learn more

10-Day Weather Forecast

Advertisements
Track Severe Weather on mobile